Ana Sayfa
METAR-TAF:

METAR-TAF

Havaalanları :

Cape May County Airport

Wildwood, New Jersey, Amerika Birleşik Devletleri

Enlem: 39-01N, Boylam: 074-55W, yükseklik: 7 m

Güncel hava durumu gözlemi

Rapor saat 17:56 UTC de 30 dakika önce yapıldı.
Rüzgar kuzeybatıdan 10 kt
Sıcaklık 6°C
Nem 45%
Basınç 1023 hPa
Görüş mesafesi: 16.1 km
Açık gökyüzü

METAR: KWWD 071756Z AUTO 32010KT 10SM CLR 06/M05 A3021 RMK AO2 SLP233 T00561050 10056 20033 56013 $

Saat: 13:26 (18:26 UTC)


TAF: eksik

4.000'den fazla havaalanı için hava durumu gözlemleri ve tahminleri (METAR ve TAF raporları).

Kullanılabilir istasyonlar harita üzerinde sarı ve kırmızı noktalarla gösterilir.

İstasyonun adını görmek için fareyi noktanın üzerinde gezdirin.

Sonrasında hava gözlem ve tahminlerini görmek için tıklayın.

Haritayı değiştirmek için: yaklaştırmak için siyah artı işaretli yeşil düğmeye ve uzaklaştırmak için de eksi işaretli düğmeye hızla tıklayın; bitişik haritalar için yeşil okları kullanın.


METAR-TAF: